sensor_id;sensor_type;location;lat;lon;timestamp;temperature;humidity
5796;DHT22;2924;51.458;7.046;2023-01-25T00:02:20;-0.50;99.90
5796;DHT22;2924;51.458;7.046;2023-01-25T00:04:46;-0.40;99.90
5796;DHT22;2924;51.458;7.046;2023-01-25T00:07:12;-0.40;99.90
5796;DHT22;2924;51.458;7.046;2023-01-25T00:09:37;-0.40;99.90
5796;DHT22;2924;51.458;7.046;2023-01-25T00:12:03;-0.40;99.90
5796;DHT22;2924;51.458;7.046;2023-01-25T00:14:29;-0.40;99.90
5796;DHT22;2924;51.458;7.046;2023-01-25T00:16:54;-0.40;99.90
5796;DHT22;2924;51.458;7.046;2023-01-25T00:19:20;-0.40;99.90
5796;DHT22;2924;51.458;7.046;2023-01-25T00:21:46;-0.40;99.90
5796;DHT22;2924;51.458;7.046;2023-01-25T00:24:12;-0.40;99.90
5796;DHT22;2924;51.458;7.046;2023-01-25T00:26:39;-0.40;99.90
5796;DHT22;2924;51.458;7.046;2023-01-25T00:29:05;-0.30;99.90
5796;DHT22;2924;51.458;7.046;2023-01-25T00:37:00;-0.30;99.90
5796;DHT22;2924;51.458;7.046;2023-01-25T00:39:27;-0.40;99.90
5796;DHT22;2924;51.458;7.046;2023-01-25T00:41:53;-0.50;99.90
5796;DHT22;2924;51.458;7.046;2023-01-25T00:44:19;-0.50;99.90
5796;DHT22;2924;51.458;7.046;2023-01-25T00:46:45;-0.50;99.90
5796;DHT22;2924;51.458;7.046;2023-01-25T00:49:28;-0.50;99.90
5796;DHT22;2924;51.458;7.046;2023-01-25T00:51:56;-0.50;99.90
5796;DHT22;2924;51.458;7.046;2023-01-25T00:54:22;-0.40;99.90
5796;DHT22;2924;51.458;7.046;2023-01-25T00:56:48;-0.50;99.90
5796;DHT22;2924;51.458;7.046;2023-01-25T00:59:16;-0.50;99.90
5796;DHT22;2924;51.458;7.046;2023-01-25T01:01:42;-0.50;99.90
5796;DHT22;2924;51.458;7.046;2023-01-25T01:04:08;-0.50;99.90
5796;DHT22;2924;51.458;7.046;2023-01-25T01:06:37;-0.50;99.90
5796;DHT22;2924;51.458;7.046;2023-01-25T01:09:05;-0.50;99.90
5796;DHT22;2924;51.458;7.046;2023-01-25T01:11:31;-0.40;99.90
5796;DHT22;2924;51.458;7.046;2023-01-25T01:13:58;-0.50;99.90
5796;DHT22;2924;51.458;7.046;2023-01-25T01:16:24;-0.60;99.90
5796;DHT22;2924;51.458;7.046;2023-01-25T01:18:50;-0.70;99.90
5796;DHT22;2924;51.458;7.046;2023-01-25T01:21:16;-0.70;99.90
5796;DHT22;2924;51.458;7.046;2023-01-25T01:23:42;-0.80;99.90
5796;DHT22;2924;51.458;7.046;2023-01-25T01:26:11;-0.80;99.90
5796;DHT22;2924;51.458;7.046;2023-01-25T01:28:37;-0.80;99.90
5796;DHT22;2924;51.458;7.046;2023-01-25T01:31:25;-0.80;99.90
5796;DHT22;2924;51.458;7.046;2023-01-25T01:33:52;-0.80;99.90
5796;DHT22;2924;51.458;7.046;2023-01-25T01:36:20;-0.70;99.90
5796;DHT22;2924;51.458;7.046;2023-01-25T01:38:46;-0.70;99.90
5796;DHT22;2924;51.458;7.046;2023-01-25T01:41:13;-0.70;99.90
5796;DHT22;2924;51.458;7.046;2023-01-25T01:43:39;-0.70;99.90
5796;DHT22;2924;51.458;7.046;2023-01-25T01:46:10;-0.70;99.90
5796;DHT22;2924;51.458;7.046;2023-01-25T01:48:48;-0.70;99.90
5796;DHT22;2924;51.458;7.046;2023-01-25T01:51:42;-0.80;99.90
5796;DHT22;2924;51.458;7.046;2023-01-25T01:54:10;-0.90;99.90
5796;DHT22;2924;51.458;7.046;2023-01-25T01:57:08;-0.90;99.90
5796;DHT22;2924;51.458;7.046;2023-01-25T01:59:48;-0.90;99.90
5796;DHT22;2924;51.458;7.046;2023-01-25T02:02:15;-0.90;99.90
5796;DHT22;2924;51.458;7.046;2023-01-25T02:04:45;-0.80;99.90
5796;DHT22;2924;51.458;7.046;2023-01-25T02:07:20;-0.80;99.90
5796;DHT22;2924;51.458;7.046;2023-01-25T02:09:49;-0.80;99.90
5796;DHT22;2924;51.458;7.046;2023-01-25T02:12:15;-0.90;99.90
5796;DHT22;2924;51.458;7.046;2023-01-25T02:14:47;-0.90;99.90
5796;DHT22;2924;51.458;7.046;2023-01-25T02:17:12;-0.90;99.90
5796;DHT22;2924;51.458;7.046;2023-01-25T02:22:22;-0.80;99.90
5796;DHT22;2924;51.458;7.046;2023-01-25T02:25:08;-0.80;99.90
5796;DHT22;2924;51.458;7.046;2023-01-25T02:27:38;-0.90;99.90
5796;DHT22;2924;51.458;7.046;2023-01-25T02:30:05;-0.90;99.90
5796;DHT22;2924;51.458;7.046;2023-01-25T02:32:32;-0.80;99.90
5796;DHT22;2924;51.458;7.046;2023-01-25T02:34:58;-0.80;99.90
5796;DHT22;2924;51.458;7.046;2023-01-25T02:37:24;-0.90;99.90
5796;DHT22;2924;51.458;7.046;2023-01-25T02:39:50;-1.00;99.90
5796;DHT22;2924;51.458;7.046;2023-01-25T02:42:16;-1.00;99.90
5796;DHT22;2924;51.458;7.046;2023-01-25T02:44:41;-1.00;99.90
5796;DHT22;2924;51.458;7.046;2023-01-25T02:47:08;-1.00;99.90
5796;DHT22;2924;51.458;7.046;2023-01-25T02:49:36;-1.00;99.90
5796;DHT22;2924;51.458;7.046;2023-01-25T02:52:03;-0.90;99.90
5796;DHT22;2924;51.458;7.046;2023-01-25T02:54:29;-0.90;99.90
5796;DHT22;2924;51.458;7.046;2023-01-25T02:56:55;-0.90;99.90
5796;DHT22;2924;51.458;7.046;2023-01-25T02:59:57;-0.90;99.90
5796;DHT22;2924;51.458;7.046;2023-01-25T03:02:23;-0.90;99.90
5796;DHT22;2924;51.458;7.046;2023-01-25T03:04:48;-1.10;99.90
5796;DHT22;2924;51.458;7.046;2023-01-25T03:07:15;-1.10;99.90
5796;DHT22;2924;51.458;7.046;2023-01-25T03:09:41;-1.00;99.90
5796;DHT22;2924;51.458;7.046;2023-01-25T03:12:06;-1.00;99.90
5796;DHT22;2924;51.458;7.046;2023-01-25T03:14:32;-1.00;99.90
5796;DHT22;2924;51.458;7.046;2023-01-25T03:16:58;-1.10;99.90
5796;DHT22;2924;51.458;7.046;2023-01-25T03:19:23;-1.10;99.90
5796;DHT22;2924;51.458;7.046;2023-01-25T03:21:49;-1.10;99.90
5796;DHT22;2924;51.458;7.046;2023-01-25T03:24:15;-1.00;99.90
5796;DHT22;2924;51.458;7.046;2023-01-25T03:26:42;-1.10;99.90
5796;DHT22;2924;51.458;7.046;2023-01-25T03:29:26;-1.10;99.90
5796;DHT22;2924;51.458;7.046;2023-01-25T03:31:51;-1.10;99.90
5796;DHT22;2924;51.458;7.046;2023-01-25T03:34:17;-1.10;99.90
5796;DHT22;2924;51.458;7.046;2023-01-25T03:36:43;-1.20;99.90
5796;DHT22;2924;51.458;7.046;2023-01-25T03:39:08;-1.20;99.90
5796;DHT22;2924;51.458;7.046;2023-01-25T03:41:34;-1.20;99.90
5796;DHT22;2924;51.458;7.046;2023-01-25T03:44:00;-1.20;99.90
5796;DHT22;2924;51.458;7.046;2023-01-25T03:46:25;-1.20;99.90
5796;DHT22;2924;51.458;7.046;2023-01-25T03:48:51;-1.10;99.90
5796;DHT22;2924;51.458;7.046;2023-01-25T03:51:16;-1.10;99.90
5796;DHT22;2924;51.458;7.046;2023-01-25T03:53:42;-1.10;99.90
5796;DHT22;2924;51.458;7.046;2023-01-25T03:56:10;-1.00;99.90
5796;DHT22;2924;51.458;7.046;2023-01-25T03:58:37;-1.00;99.90
5796;DHT22;2924;51.458;7.046;2023-01-25T04:01:04;-1.00;99.90
5796;DHT22;2924;51.458;7.046;2023-01-25T04:03:30;-1.00;99.90
5796;DHT22;2924;51.458;7.046;2023-01-25T04:05:57;-1.00;99.90
5796;DHT22;2924;51.458;7.046;2023-01-25T04:08:24;-1.00;99.90
5796;DHT22;2924;51.458;7.046;2023-01-25T04:10:54;-1.00;99.90
5796;DHT22;2924;51.458;7.046;2023-01-25T04:13:21;-1.00;99.90
5796;DHT22;2924;51.458;7.046;2023-01-25T04:15:47;-1.00;99.90
5796;DHT22;2924;51.458;7.046;2023-01-25T04:18:13;-1.10;99.90
5796;DHT22;2924;51.458;7.046;2023-01-25T04:20:39;-1.00;99.90
5796;DHT22;2924;51.458;7.046;2023-01-25T04:23:05;-1.00;99.90
5796;DHT22;2924;51.458;7.046;2023-01-25T04:25:34;-1.00;99.90
5796;DHT22;2924;51.458;7.046;2023-01-25T04:28:00;-1.20;99.90
5796;DHT22;2924;51.458;7.046;2023-01-25T04:30:25;-1.20;99.90
5796;DHT22;2924;51.458;7.046;2023-01-25T04:32:51;-1.30;99.90
5796;DHT22;2924;51.458;7.046;2023-01-25T04:35:16;-1.20;99.90
5796;DHT22;2924;51.458;7.046;2023-01-25T04:37:42;-1.30;99.90
5796;DHT22;2924;51.458;7.046;2023-01-25T04:40:08;-1.20;99.90
5796;DHT22;2924;51.458;7.046;2023-01-25T04:42:34;-1.30;99.90
5796;DHT22;2924;51.458;7.046;2023-01-25T04:45:00;-1.30;99.90
5796;DHT22;2924;51.458;7.046;2023-01-25T04:47:26;-1.30;99.90
5796;DHT22;2924;51.458;7.046;2023-01-25T04:49:51;-1.30;99.90
5796;DHT22;2924;51.458;7.046;2023-01-25T04:52:17;-1.30;99.90
5796;DHT22;2924;51.458;7.046;2023-01-25T04:54:43;-1.30;99.90
5796;DHT22;2924;51.458;7.046;2023-01-25T04:57:08;-1.30;99.90
5796;DHT22;2924;51.458;7.046;2023-01-25T04:59:34;-1.30;99.90
5796;DHT22;2924;51.458;7.046;2023-01-25T05:02:00;-1.20;99.90
5796;DHT22;2924;51.458;7.046;2023-01-25T05:04:25;-1.20;99.90
5796;DHT22;2924;51.458;7.046;2023-01-25T05:06:51;-1.20;99.90
5796;DHT22;2924;51.458;7.046;2023-01-25T05:09:16;-1.20;99.90
5796;DHT22;2924;51.458;7.046;2023-01-25T05:11:42;-1.20;99.90
5796;DHT22;2924;51.458;7.046;2023-01-25T05:14:08;-1.20;99.90
5796;DHT22;2924;51.458;7.046;2023-01-25T05:16:33;-1.20;99.90
5796;DHT22;2924;51.458;7.046;2023-01-25T05:18:59;-1.20;99.90
5796;DHT22;2924;51.458;7.046;2023-01-25T05:21:25;-1.20;99.90
5796;DHT22;2924;51.458;7.046;2023-01-25T05:24:09;-1.10;99.90
5796;DHT22;2924;51.458;7.046;2023-01-25T05:26:34;-1.20;99.90
5796;DHT22;2924;51.458;7.046;2023-01-25T05:29:19;-1.20;99.90
5796;DHT22;2924;51.458;7.046;2023-01-25T05:31:44;-1.10;99.90
5796;DHT22;2924;51.458;7.046;2023-01-25T05:34:10;-1.00;99.90
5796;DHT22;2924;51.458;7.046;2023-01-25T05:36:35;-1.00;99.90
5796;DHT22;2924;51.458;7.046;2023-01-25T05:39:03;-1.10;99.90
5796;DHT22;2924;51.458;7.046;2023-01-25T05:41:29;-1.10;99.90
5796;DHT22;2924;51.458;7.046;2023-01-25T05:43:55;-1.10;99.90
5796;DHT22;2924;51.458;7.046;2023-01-25T05:46:20;-1.10;99.90
5796;DHT22;2924;51.458;7.046;2023-01-25T05:48:46;-1.10;99.90
5796;DHT22;2924;51.458;7.046;2023-01-25T05:51:12;-1.00;99.90
5796;DHT22;2924;51.458;7.046;2023-01-25T05:53:38;-1.00;99.90
5796;DHT22;2924;51.458;7.046;2023-01-25T05:56:05;-1.10;99.90
5796;DHT22;2924;51.458;7.046;2023-01-25T05:58:31;-1.00;99.90
5796;DHT22;2924;51.458;7.046;2023-01-25T06:00:59;-1.00;99.90
5796;DHT22;2924;51.458;7.046;2023-01-25T06:03:25;-1.00;99.90
5796;DHT22;2924;51.458;7.046;2023-01-25T06:05:55;-1.10;99.90
5796;DHT22;2924;51.458;7.046;2023-01-25T06:08:21;-1.10;99.90
5796;DHT22;2924;51.458;7.046;2023-01-25T06:10:46;-1.10;99.90
5796;DHT22;2924;51.458;7.046;2023-01-25T06:13:12;-1.10;99.90
5796;DHT22;2924;51.458;7.046;2023-01-25T06:15:38;-1.10;99.90
5796;DHT22;2924;51.458;7.046;2023-01-25T06:18:03;-1.10;99.90
5796;DHT22;2924;51.458;7.046;2023-01-25T06:20:29;-1.10;99.90
5796;DHT22;2924;51.458;7.046;2023-01-25T06:22:54;-1.00;99.90
5796;DHT22;2924;51.458;7.046;2023-01-25T06:25:20;-1.00;99.90
5796;DHT22;2924;51.458;7.046;2023-01-25T06:27:46;-0.90;99.90
5796;DHT22;2924;51.458;7.046;2023-01-25T06:30:12;-0.90;99.90
5796;DHT22;2924;51.458;7.046;2023-01-25T06:32:37;-0.90;99.90
5796;DHT22;2924;51.458;7.046;2023-01-25T06:35:03;-0.90;99.90
5796;DHT22;2924;51.458;7.046;2023-01-25T06:37:29;-0.90;99.90
5796;DHT22;2924;51.458;7.046;2023-01-25T06:39:54;-0.90;99.90
5796;DHT22;2924;51.458;7.046;2023-01-25T06:42:23;-0.90;99.90
5796;DHT22;2924;51.458;7.046;2023-01-25T06:44:48;-0.90;99.90
5796;DHT22;2924;51.458;7.046;2023-01-25T06:47:15;-0.90;99.90
5796;DHT22;2924;51.458;7.046;2023-01-25T06:49:40;-1.00;99.90
5796;DHT22;2924;51.458;7.046;2023-01-25T06:52:06;-0.90;99.90
5796;DHT22;2924;51.458;7.046;2023-01-25T06:54:32;-0.80;99.90
5796;DHT22;2924;51.458;7.046;2023-01-25T06:56:58;-0.80;99.90
5796;DHT22;2924;51.458;7.046;2023-01-25T06:59:24;-0.90;99.90
5796;DHT22;2924;51.458;7.046;2023-01-25T07:01:49;-0.90;99.90
5796;DHT22;2924;51.458;7.046;2023-01-25T07:04:16;-0.90;99.90
5796;DHT22;2924;51.458;7.046;2023-01-25T07:06:42;-0.90;99.90
5796;DHT22;2924;51.458;7.046;2023-01-25T07:09:10;-0.80;99.90
5796;DHT22;2924;51.458;7.046;2023-01-25T07:11:37;-0.80;99.90
5796;DHT22;2924;51.458;7.046;2023-01-25T07:14:03;-0.80;99.90
5796;DHT22;2924;51.458;7.046;2023-01-25T07:16:29;-0.80;99.90
5796;DHT22;2924;51.458;7.046;2023-01-25T07:19:02;-0.80;99.90
5796;DHT22;2924;51.458;7.046;2023-01-25T07:21:28;-0.70;99.90
5796;DHT22;2924;51.458;7.046;2023-01-25T07:23:59;-0.70;99.90
5796;DHT22;2924;51.458;7.046;2023-01-25T07:26:26;-0.70;99.90
5796;DHT22;2924;51.458;7.046;2023-01-25T07:28:53;-0.70;99.90
5796;DHT22;2924;51.458;7.046;2023-01-25T07:31:20;-0.70;99.90
5796;DHT22;2924;51.458;7.046;2023-01-25T07:33:50;-0.70;99.90
5796;DHT22;2924;51.458;7.046;2023-01-25T07:36:16;-0.70;99.90
5796;DHT22;2924;51.458;7.046;2023-01-25T07:38:42;-0.70;99.90
5796;DHT22;2924;51.458;7.046;2023-01-25T07:41:07;-0.80;99.90
5796;DHT22;2924;51.458;7.046;2023-01-25T07:43:33;-0.80;99.90
5796;DHT22;2924;51.458;7.046;2023-01-25T07:46:07;-0.90;99.90
5796;DHT22;2924;51.458;7.046;2023-01-25T07:48:35;-0.80;99.90
5796;DHT22;2924;51.458;7.046;2023-01-25T07:51:03;-0.80;99.90
5796;DHT22;2924;51.458;7.046;2023-01-25T07:53:39;-0.80;99.90
5796;DHT22;2924;51.458;7.046;2023-01-25T07:56:06;-0.70;99.90
5796;DHT22;2924;51.458;7.046;2023-01-25T07:58:33;-0.60;99.90
5796;DHT22;2924;51.458;7.046;2023-01-25T08:01:15;-0.60;99.90
5796;DHT22;2924;51.458;7.046;2023-01-25T08:03:41;-0.50;99.90
5796;DHT22;2924;51.458;7.046;2023-01-25T08:06:07;-0.50;99.90
5796;DHT22;2924;51.458;7.046;2023-01-25T08:08:34;-0.50;99.90
5796;DHT22;2924;51.458;7.046;2023-01-25T08:11:14;-0.40;99.90
5796;DHT22;2924;51.458;7.046;2023-01-25T08:13:40;-0.40;99.90
5796;DHT22;2924;51.458;7.046;2023-01-25T08:16:06;-0.40;99.90
5796;DHT22;2924;51.458;7.046;2023-01-25T08:18:32;-0.40;99.90
5796;DHT22;2924;51.458;7.046;2023-01-25T08:20:58;-0.40;99.90
5796;DHT22;2924;51.458;7.046;2023-01-25T08:23:24;-0.40;99.90
5796;DHT22;2924;51.458;7.046;2023-01-25T08:25:50;-0.40;99.90
5796;DHT22;2924;51.458;7.046;2023-01-25T08:28:16;-0.40;99.90
5796;DHT22;2924;51.458;7.046;2023-01-25T08:30:41;-0.40;99.90
5796;DHT22;2924;51.458;7.046;2023-01-25T08:33:07;-0.30;99.90
5796;DHT22;2924;51.458;7.046;2023-01-25T08:35:33;-0.40;99.90
5796;DHT22;2924;51.458;7.046;2023-01-25T08:38:01;-0.30;99.90
5796;DHT22;2924;51.458;7.046;2023-01-25T08:40:26;-0.30;99.90
5796;DHT22;2924;51.458;7.046;2023-01-25T08:42:52;-0.20;99.90
5796;DHT22;2924;51.458;7.046;2023-01-25T08:45:18;-0.20;99.90
5796;DHT22;2924;51.458;7.046;2023-01-25T08:47:44;-0.10;99.90
5796;DHT22;2924;51.458;7.046;2023-01-25T08:50:10;-0.20;99.90
5796;DHT22;2924;51.458;7.046;2023-01-25T08:52:35;-0.20;99.90
5796;DHT22;2924;51.458;7.046;2023-01-25T08:55:01;-0.40;99.90
5796;DHT22;2924;51.458;7.046;2023-01-25T08:57:26;-0.50;99.90
5796;DHT22;2924;51.458;7.046;2023-01-25T08:59:52;-0.60;99.90
5796;DHT22;2924;51.458;7.046;2023-01-25T09:02:18;-0.70;99.90
5796;DHT22;2924;51.458;7.046;2023-01-25T09:04:45;-0.80;99.90
5796;DHT22;2924;51.458;7.046;2023-01-25T09:07:11;-0.80;99.90
5796;DHT22;2924;51.458;7.046;2023-01-25T09:09:37;-0.70;99.90
5796;DHT22;2924;51.458;7.046;2023-01-25T09:12:03;-0.70;99.90
5796;DHT22;2924;51.458;7.046;2023-01-25T09:14:28;-0.70;99.90
5796;DHT22;2924;51.458;7.046;2023-01-25T09:16:54;-0.70;99.90
5796;DHT22;2924;51.458;7.046;2023-01-25T09:19:20;-0.70;99.90
5796;DHT22;2924;51.458;7.046;2023-01-25T09:21:45;-0.60;99.90
5796;DHT22;2924;51.458;7.046;2023-01-25T09:24:13;-0.50;99.90
5796;DHT22;2924;51.458;7.046;2023-01-25T09:26:41;-0.40;99.90
5796;DHT22;2924;51.458;7.046;2023-01-25T09:29:07;-0.30;99.90
5796;DHT22;2924;51.458;7.046;2023-01-25T09:31:33;-0.20;99.90
5796;DHT22;2924;51.458;7.046;2023-01-25T09:33:59;-0.20;99.90
5796;DHT22;2924;51.458;7.046;2023-01-25T09:36:25;-0.20;99.90
5796;DHT22;2924;51.458;7.046;2023-01-25T09:38:50;-0.10;99.90
5796;DHT22;2924;51.458;7.046;2023-01-25T09:47:03;0.10;99.90
5796;DHT22;2924;51.458;7.046;2023-01-25T09:49:49;0.00;99.90
5796;DHT22;2924;51.458;7.046;2023-01-25T09:52:51;0.00;99.90
5796;DHT22;2924;51.458;7.046;2023-01-25T09:55:24;-0.10;99.90
5796;DHT22;2924;51.458;7.046;2023-01-25T09:57:52;-0.30;99.90
5796;DHT22;2924;51.458;7.046;2023-01-25T10:00:37;-0.30;99.90
5796;DHT22;2924;51.458;7.046;2023-01-25T10:05:46;-0.30;99.90
5796;DHT22;2924;51.458;7.046;2023-01-25T10:10:45;-0.20;99.90
5796;DHT22;2924;51.458;7.046;2023-01-25T10:13:23;-0.10;99.90
5796;DHT22;2924;51.458;7.046;2023-01-25T10:15:56;-0.20;99.90
5796;DHT22;2924;51.458;7.046;2023-01-25T10:18:53;-0.20;99.90
5796;DHT22;2924;51.458;7.046;2023-01-25T10:21:27;-0.20;99.90
5796;DHT22;2924;51.458;7.046;2023-01-25T10:26:44;-0.30;99.90
5796;DHT22;2924;51.458;7.046;2023-01-25T10:29:30;-0.20;99.90
5796;DHT22;2924;51.458;7.046;2023-01-25T10:32:29;-0.20;99.90
5796;DHT22;2924;51.458;7.046;2023-01-25T10:35:15;-0.10;99.90
5796;DHT22;2924;51.458;7.046;2023-01-25T10:37:42;0.00;99.90
5796;DHT22;2924;51.458;7.046;2023-01-25T10:42:45;0.00;99.90
5796;DHT22;2924;51.458;7.046;2023-01-25T10:45:15;0.10;99.90
5796;DHT22;2924;51.458;7.046;2023-01-25T10:47:44;0.30;99.90
5796;DHT22;2924;51.458;7.046;2023-01-25T10:53:03;0.50;99.90
5796;DHT22;2924;51.458;7.046;2023-01-25T10:55:28;0.50;99.90
5796;DHT22;2924;51.458;7.046;2023-01-25T10:57:56;0.50;99.90
5796;DHT22;2924;51.458;7.046;2023-01-25T11:02:55;0.60;99.90
5796;DHT22;2924;51.458;7.046;2023-01-25T11:05:30;0.50;99.90
5796;DHT22;2924;51.458;7.046;2023-01-25T11:07:57;0.50;99.90
5796;DHT22;2924;51.458;7.046;2023-01-25T11:10:26;0.50;99.90
5796;DHT22;2924;51.458;7.046;2023-01-25T11:13:33;0.50;99.90
5796;DHT22;2924;51.458;7.046;2023-01-25T11:18:28;0.60;99.90
5796;DHT22;2924;51.458;7.046;2023-01-25T11:23:34;0.60;99.90
5796;DHT22;2924;51.458;7.046;2023-01-25T11:26:15;0.50;99.90
5796;DHT22;2924;51.458;7.046;2023-01-25T11:28:41;0.50;99.90
5796;DHT22;2924;51.458;7.046;2023-01-25T11:31:13;0.50;99.90
5796;DHT22;2924;51.458;7.046;2023-01-25T11:33:40;0.50;99.90
5796;DHT22;2924;51.458;7.046;2023-01-25T11:38:31;0.40;99.90
5796;DHT22;2924;51.458;7.046;2023-01-25T11:41:20;0.20;99.90
5796;DHT22;2924;51.458;7.046;2023-01-25T11:44:17;0.20;99.90
5796;DHT22;2924;51.458;7.046;2023-01-25T12:00:20;0.30;99.90
5796;DHT22;2924;51.458;7.046;2023-01-25T12:11:27;0.30;99.90
5796;DHT22;2924;51.458;7.046;2023-01-25T12:28:22;0.10;99.90
5796;DHT22;2924;51.458;7.046;2023-01-25T12:33:26;0.00;99.90
5796;DHT22;2924;51.458;7.046;2023-01-25T12:36:12;0.10;99.90
5796;DHT22;2924;51.458;7.046;2023-01-25T12:43:53;0.10;99.90
5796;DHT22;2924;51.458;7.046;2023-01-25T12:46:42;0.10;99.90
5796;DHT22;2924;51.458;7.046;2023-01-25T12:49:25;0.20;99.90
5796;DHT22;2924;51.458;7.046;2023-01-25T12:51:52;0.00;99.90
5796;DHT22;2924;51.458;7.046;2023-01-25T12:54:28;0.00;99.90
5796;DHT22;2924;51.458;7.046;2023-01-25T13:03:03;-0.10;99.90
5796;DHT22;2924;51.458;7.046;2023-01-25T13:05:45;-0.20;99.90
5796;DHT22;2924;51.458;7.046;2023-01-25T13:08:30;-0.20;99.90
5796;DHT22;2924;51.458;7.046;2023-01-25T13:13:35;-0.20;99.90
5796;DHT22;2924;51.458;7.046;2023-01-25T13:18:55;0.00;99.90
5796;DHT22;2924;51.458;7.046;2023-01-25T13:21:37;0.00;99.90
5796;DHT22;2924;51.458;7.046;2023-01-25T13:24:16;0.00;99.90
5796;DHT22;2924;51.458;7.046;2023-01-25T13:32:00;0.00;99.90
5796;DHT22;2924;51.458;7.046;2023-01-25T13:37:22;0.00;99.90
5796;DHT22;2924;51.458;7.046;2023-01-25T13:40:03;0.10;99.90
5796;DHT22;2924;51.458;7.046;2023-01-25T13:42:34;0.10;99.90
5796;DHT22;2924;51.458;7.046;2023-01-25T13:45:17;0.10;99.90
5796;DHT22;2924;51.458;7.046;2023-01-25T13:50:33;0.10;99.90
5796;DHT22;2924;51.458;7.046;2023-01-25T13:53:17;0.00;99.90
5796;DHT22;2924;51.458;7.046;2023-01-25T13:55:49;-0.10;99.90
5796;DHT22;2924;51.458;7.046;2023-01-25T13:58:25;0.00;99.90
5796;DHT22;2924;51.458;7.046;2023-01-25T14:01:12;0.00;99.90
5796;DHT22;2924;51.458;7.046;2023-01-25T14:03:56;0.00;99.90
5796;DHT22;2924;51.458;7.046;2023-01-25T14:06:38;0.00;99.90
5796;DHT22;2924;51.458;7.046;2023-01-25T14:09:16;-0.10;99.90
5796;DHT22;2924;51.458;7.046;2023-01-25T14:11:55;-0.20;99.90
5796;DHT22;2924;51.458;7.046;2023-01-25T14:14:32;-0.30;99.90
5796;DHT22;2924;51.458;7.046;2023-01-25T14:17:20;-0.40;99.90
5796;DHT22;2924;51.458;7.046;2023-01-25T14:19:55;-0.40;99.90
5796;DHT22;2924;51.458;7.046;2023-01-25T14:22:25;-0.30;99.90
5796;DHT22;2924;51.458;7.046;2023-01-25T14:25:04;-0.30;99.90
5796;DHT22;2924;51.458;7.046;2023-01-25T14:27:40;-0.30;99.90
5796;DHT22;2924;51.458;7.046;2023-01-25T14:30:18;-0.20;99.90
5796;DHT22;2924;51.458;7.046;2023-01-25T14:32:45;-0.30;99.90
5796;DHT22;2924;51.458;7.046;2023-01-25T14:37:57;-0.40;99.90
5796;DHT22;2924;51.458;7.046;2023-01-25T14:40:25;-0.40;99.90
5796;DHT22;2924;51.458;7.046;2023-01-25T14:42:52;-0.50;99.90
5796;DHT22;2924;51.458;7.046;2023-01-25T14:45:19;-0.50;99.90
5796;DHT22;2924;51.458;7.046;2023-01-25T14:47:48;-0.50;99.90
5796;DHT22;2924;51.458;7.046;2023-01-25T14:50:34;-0.50;99.90
5796;DHT22;2924;51.458;7.046;2023-01-25T14:53:13;-0.40;99.90
5796;DHT22;2924;51.458;7.046;2023-01-25T14:55:43;-0.40;99.90
5796;DHT22;2924;51.458;7.046;2023-01-25T14:58:18;-0.30;99.90
5796;DHT22;2924;51.458;7.046;2023-01-25T15:00:52;-0.30;99.90
5796;DHT22;2924;51.458;7.046;2023-01-25T15:03:18;-0.40;99.90
5796;DHT22;2924;51.458;7.046;2023-01-25T15:05:46;-0.40;99.90
5796;DHT22;2924;51.458;7.046;2023-01-25T15:08:23;-0.50;99.90
5796;DHT22;2924;51.458;7.046;2023-01-25T15:10:57;-0.40;99.90
5796;DHT22;2924;51.458;7.046;2023-01-25T15:13:43;-0.50;99.90
5796;DHT22;2924;51.458;7.046;2023-01-25T15:16:09;-0.50;99.90
5796;DHT22;2924;51.458;7.046;2023-01-25T15:18:50;-0.60;99.90
5796;DHT22;2924;51.458;7.046;2023-01-25T15:21:27;-0.70;99.90
5796;DHT22;2924;51.458;7.046;2023-01-25T15:23:54;-0.60;99.90
5796;DHT22;2924;51.458;7.046;2023-01-25T15:26:26;-0.60;99.90
5796;DHT22;2924;51.458;7.046;2023-01-25T15:28:58;-0.60;99.90
5796;DHT22;2924;51.458;7.046;2023-01-25T15:31:27;-0.60;99.90
5796;DHT22;2924;51.458;7.046;2023-01-25T15:33:54;-0.50;99.90
5796;DHT22;2924;51.458;7.046;2023-01-25T15:36:19;-0.50;99.90
5796;DHT22;2924;51.458;7.046;2023-01-25T15:38:45;-0.50;99.90
5796;DHT22;2924;51.458;7.046;2023-01-25T15:41:11;-0.40;99.90
5796;DHT22;2924;51.458;7.046;2023-01-25T15:43:38;-0.50;99.90
5796;DHT22;2924;51.458;7.046;2023-01-25T15:46:05;-0.50;99.90
5796;DHT22;2924;51.458;7.046;2023-01-25T15:48:42;-0.50;99.90
5796;DHT22;2924;51.458;7.046;2023-01-25T15:51:10;-0.50;99.90
5796;DHT22;2924;51.458;7.046;2023-01-25T15:53:36;-0.60;99.90
5796;DHT22;2924;51.458;7.046;2023-01-25T15:56:12;-0.70;99.90
5796;DHT22;2924;51.458;7.046;2023-01-25T15:58:40;-0.70;99.90
5796;DHT22;2924;51.458;7.046;2023-01-25T16:01:06;-0.70;99.90
5796;DHT22;2924;51.458;7.046;2023-01-25T16:03:32;-0.70;99.90
5796;DHT22;2924;51.458;7.046;2023-01-25T16:06:02;-0.70;99.90
5796;DHT22;2924;51.458;7.046;2023-01-25T16:08:28;-0.70;99.90
5796;DHT22;2924;51.458;7.046;2023-01-25T16:10:54;-0.80;99.90
5796;DHT22;2924;51.458;7.046;2023-01-25T16:13:20;-0.80;99.90
5796;DHT22;2924;51.458;7.046;2023-01-25T16:15:48;-0.80;99.90
5796;DHT22;2924;51.458;7.046;2023-01-25T16:18:15;-0.80;99.90
5796;DHT22;2924;51.458;7.046;2023-01-25T16:20:42;-0.80;99.90
5796;DHT22;2924;51.458;7.046;2023-01-25T16:23:08;-0.90;99.90
5796;DHT22;2924;51.458;7.046;2023-01-25T16:25:37;-0.80;99.90
5796;DHT22;2924;51.458;7.046;2023-01-25T16:28:02;-0.80;99.90
5796;DHT22;2924;51.458;7.046;2023-01-25T16:30:28;-0.80;99.90
5796;DHT22;2924;51.458;7.046;2023-01-25T16:32:56;-0.70;99.90
5796;DHT22;2924;51.458;7.046;2023-01-25T16:35:22;-0.80;99.90
5796;DHT22;2924;51.458;7.046;2023-01-25T16:37:48;-0.80;99.90
5796;DHT22;2924;51.458;7.046;2023-01-25T16:40:31;-0.90;99.90
5796;DHT22;2924;51.458;7.046;2023-01-25T16:43:01;-0.90;99.90
5796;DHT22;2924;51.458;7.046;2023-01-25T16:45:27;-0.90;99.90
5796;DHT22;2924;51.458;7.046;2023-01-25T16:47:53;-1.00;99.90
5796;DHT22;2924;51.458;7.046;2023-01-25T16:50:20;-1.00;99.90
5796;DHT22;2924;51.458;7.046;2023-01-25T16:52:46;-0.90;99.90
5796;DHT22;2924;51.458;7.046;2023-01-25T16:55:16;-0.90;99.90
5796;DHT22;2924;51.458;7.046;2023-01-25T16:57:43;-0.90;99.90
5796;DHT22;2924;51.458;7.046;2023-01-25T17:00:12;-0.90;99.90
5796;DHT22;2924;51.458;7.046;2023-01-25T17:02:42;-0.90;99.90
5796;DHT22;2924;51.458;7.046;2023-01-25T17:05:09;-0.90;99.90
5796;DHT22;2924;51.458;7.046;2023-01-25T17:07:35;-0.90;99.90
5796;DHT22;2924;51.458;7.046;2023-01-25T17:10:01;-0.90;99.90
5796;DHT22;2924;51.458;7.046;2023-01-25T17:12:28;-1.00;99.90
5796;DHT22;2924;51.458;7.046;2023-01-25T17:14:54;-0.90;99.90
5796;DHT22;2924;51.458;7.046;2023-01-25T17:17:19;-0.90;99.90
5796;DHT22;2924;51.458;7.046;2023-01-25T17:19:47;-0.90;99.90
5796;DHT22;2924;51.458;7.046;2023-01-25T17:22:13;-0.90;99.90
5796;DHT22;2924;51.458;7.046;2023-01-25T17:24:38;-1.00;99.90
5796;DHT22;2924;51.458;7.046;2023-01-25T17:27:04;-1.00;99.90
5796;DHT22;2924;51.458;7.046;2023-01-25T17:29:30;-1.10;99.90
5796;DHT22;2924;51.458;7.046;2023-01-25T17:31:56;-1.10;99.90
5796;DHT22;2924;51.458;7.046;2023-01-25T17:34:21;-1.10;99.90
5796;DHT22;2924;51.458;7.046;2023-01-25T17:36:48;-1.10;99.90
5796;DHT22;2924;51.458;7.046;2023-01-25T17:39:15;-1.00;99.90
5796;DHT22;2924;51.458;7.046;2023-01-25T17:41:42;-1.00;99.90
5796;DHT22;2924;51.458;7.046;2023-01-25T17:44:08;-0.90;99.90
5796;DHT22;2924;51.458;7.046;2023-01-25T17:46:35;-1.00;99.90
5796;DHT22;2924;51.458;7.046;2023-01-25T17:49:06;-1.00;99.90
5796;DHT22;2924;51.458;7.046;2023-01-25T17:51:33;-0.90;99.90
5796;DHT22;2924;51.458;7.046;2023-01-25T17:54:00;-0.90;99.90
5796;DHT22;2924;51.458;7.046;2023-01-25T17:56:25;-0.90;99.90
5796;DHT22;2924;51.458;7.046;2023-01-25T17:58:52;-0.90;99.90
5796;DHT22;2924;51.458;7.046;2023-01-25T18:01:20;-0.90;99.90
5796;DHT22;2924;51.458;7.046;2023-01-25T18:03:47;-0.90;99.90
5796;DHT22;2924;51.458;7.046;2023-01-25T18:06:16;-1.00;99.90